createdAt,value
2023-01-25T00:00:27.520Z,18.450
2023-01-25T00:01:26.603Z,17.700
2023-01-25T00:02:23.035Z,19.150
2023-01-25T00:03:28.312Z,18.400
2023-01-25T00:04:25.095Z,18.900
2023-01-25T00:05:26.167Z,18.600
2023-01-25T00:06:51.244Z,17.200
2023-01-25T00:07:40.241Z,18.800
2023-01-25T00:08:35.771Z,18.300
2023-01-25T00:09:26.494Z,18.600
2023-01-25T00:10:32.519Z,19.400
2023-01-25T00:11:25.692Z,17.750
2023-01-25T00:12:22.798Z,17.000
2023-01-25T00:13:32.003Z,18.200
2023-01-25T00:14:26.811Z,17.800
2023-01-25T00:15:23.868Z,19.100
2023-01-25T00:16:29.240Z,17.900
2023-01-25T00:17:20.720Z,18.900
2023-01-25T00:18:24.586Z,18.700
2023-01-25T00:19:21.379Z,19.700
2023-01-25T00:20:49.793Z,19.000
2023-01-25T00:21:36.858Z,19.200
2023-01-25T00:22:22.187Z,19.500
2023-01-25T00:23:31.946Z,18.200
2023-01-25T00:24:27.228Z,18.750
2023-01-25T00:25:35.247Z,18.350
2023-01-25T00:26:21.122Z,17.100
2023-01-25T00:27:58.580Z,17.650
2023-01-25T00:28:42.498Z,18.500
2023-01-25T00:29:27.091Z,17.400
2023-01-25T00:30:33.667Z,18.500
2023-01-25T00:31:30.062Z,18.000
2023-01-25T00:32:24.173Z,17.500
2023-01-25T00:33:20.874Z,18.050
2023-01-25T00:34:23.858Z,18.800
2023-01-25T00:35:26.061Z,17.900
2023-01-25T00:36:22.154Z,17.450
2023-01-25T00:37:32.419Z,17.200
2023-01-25T00:38:29.509Z,18.200
2023-01-25T00:39:25.736Z,16.200
2023-01-25T00:40:25.306Z,18.200
2023-01-25T00:41:27.216Z,17.150
2023-01-25T00:42:20.222Z,17.400
2023-01-25T00:43:33.174Z,19.200
2023-01-25T00:44:44.960Z,18.600
2023-01-25T00:45:29.822Z,17.200
2023-01-25T00:46:30.759Z,16.900
2023-01-25T00:47:22.170Z,18.800
2023-01-25T00:48:31.383Z,17.750
2023-01-25T00:49:27.576Z,16.950
2023-01-25T00:50:22.009Z,18.550
2023-01-25T00:51:21.635Z,17.400
2023-01-25T00:52:30.544Z,16.950
2023-01-25T00:53:25.264Z,16.600
2023-01-25T00:54:31.126Z,17.950
2023-01-25T00:55:19.753Z,17.250
2023-01-25T00:56:29.071Z,17.100
2023-01-25T00:57:24.937Z,16.850
2023-01-25T00:58:24.315Z,16.600
2023-01-25T00:59:28.303Z,15.700
2023-01-25T01:00:38.688Z,16.250
2023-01-25T01:01:34.052Z,17.000
2023-01-25T01:02:23.486Z,16.900
2023-01-25T01:03:30.711Z,16.350
2023-01-25T01:04:26.193Z,16.400
2023-01-25T01:05:27.428Z,17.750
2023-01-25T01:06:44.241Z,17.850
2023-01-25T01:07:43.217Z,16.900
2023-01-25T01:08:22.079Z,17.600
2023-01-25T01:09:22.328Z,16.500
2023-01-25T01:10:21.293Z,17.300
2023-01-25T01:11:22.364Z,16.800
2023-01-25T01:12:24.753Z,17.400
2023-01-25T01:13:28.261Z,17.100
2023-01-25T01:14:26.844Z,16.800
2023-01-25T01:15:20.376Z,16.600
2023-01-25T01:16:25.676Z,15.800
2023-01-25T01:17:28.091Z,16.450
2023-01-25T01:18:36.206Z,16.600
2023-01-25T01:19:27.767Z,16.400
2023-01-25T01:20:22.219Z,15.850
2023-01-25T01:21:24.387Z,15.950
2023-01-25T01:22:35.024Z,15.700
2023-01-25T01:23:30.756Z,18.200
2023-01-25T01:24:30.577Z,16.450
2023-01-25T01:25:22.730Z,15.900
2023-01-25T01:26:32.661Z,16.300
2023-01-25T01:27:24.920Z,16.250
2023-01-25T01:28:25.507Z,17.000
2023-01-25T01:29:36.594Z,17.850
2023-01-25T01:30:31.084Z,17.700
2023-01-25T01:31:27.333Z,17.650
2023-01-25T01:32:23.057Z,17.200
2023-01-25T01:33:36.372Z,18.600
2023-01-25T01:34:31.021Z,16.750
2023-01-25T01:35:22.203Z,16.750
2023-01-25T01:36:20.273Z,16.300
2023-01-25T01:37:35.732Z,17.200
2023-01-25T01:38:21.522Z,18.100
2023-01-25T01:39:23.582Z,16.200
2023-01-25T01:40:22.479Z,16.350
2023-01-25T01:41:30.260Z,16.900
2023-01-25T01:42:26.236Z,17.150
2023-01-25T01:43:20.641Z,17.700
2023-01-25T01:44:37.224Z,14.600
2023-01-25T01:45:27.918Z,16.600
2023-01-25T01:46:22.137Z,18.250
2023-01-25T01:47:26.613Z,15.200
2023-01-25T01:48:20.264Z,17.050
2023-01-25T01:49:24.010Z,15.100
2023-01-25T01:50:20.239Z,16.600
2023-01-25T01:51:30.411Z,16.700
2023-01-25T01:52:28.658Z,16.800
2023-01-25T01:53:22.392Z,17.400
2023-01-25T01:54:34.449Z,16.000
2023-01-25T01:55:23.914Z,16.900
2023-01-25T01:56:24.830Z,16.500
2023-01-25T01:57:20.094Z,16.850
2023-01-25T01:58:21.583Z,16.950
2023-01-25T01:59:30.083Z,17.100
2023-01-25T02:00:24.437Z,16.200
2023-01-25T02:01:36.199Z,16.550
2023-01-25T02:02:38.816Z,15.800
2023-01-25T02:10:28.488Z,15.700
2023-01-25T02:11:45.302Z,16.000
2023-01-25T02:12:33.323Z,16.800
2023-01-25T02:13:23.499Z,17.100
2023-01-25T02:19:31.225Z,17.200
2023-01-25T02:20:28.565Z,18.150
2023-01-25T02:21:21.168Z,18.050
2023-01-25T02:22:34.290Z,15.300
2023-01-25T02:23:28.267Z,16.700
2023-01-25T02:24:34.265Z,17.250
2023-01-25T02:25:21.594Z,16.950
2023-01-25T02:26:30.814Z,15.550
2023-01-25T02:27:26.271Z,15.100
2023-01-25T02:28:27.090Z,15.650
2023-01-25T02:29:33.715Z,17.450
2023-01-25T02:30:44.810Z,16.200
2023-01-25T02:31:25.780Z,15.600
2023-01-25T02:32:20.980Z,16.950
2023-01-25T02:33:23.261Z,16.700
2023-01-25T02:34:26.212Z,16.800
2023-01-25T02:35:29.936Z,15.650
2023-01-25T02:36:21.113Z,15.800
2023-01-25T02:37:28.975Z,15.800
2023-01-25T02:38:26.097Z,16.050
2023-01-25T02:39:20.910Z,16.200
2023-01-25T02:40:27.863Z,15.600
2023-01-25T02:41:20.823Z,17.000
2023-01-25T02:42:22.455Z,17.750
2023-01-25T02:43:22.688Z,16.600
2023-01-25T02:44:28.136Z,17.700
2023-01-25T02:45:25.403Z,16.950
2023-01-25T02:46:21.278Z,15.800
2023-01-25T02:47:30.658Z,15.100
2023-01-25T02:48:27.835Z,16.100
2023-01-25T02:49:23.530Z,16.400
2023-01-25T02:50:25.125Z,15.450
2023-01-25T02:51:24.308Z,18.200
2023-01-25T02:52:39.991Z,15.600
2023-01-25T02:53:20.243Z,16.700
2023-01-25T02:54:22.516Z,15.950
2023-01-25T02:55:27.728Z,16.950
2023-01-25T02:56:23.527Z,18.500
2023-01-25T02:57:28.180Z,16.700
2023-01-25T02:58:30.360Z,17.100
2023-01-25T02:59:19.938Z,16.250
2023-01-25T03:00:20.402Z,16.200
2023-01-25T03:01:23.113Z,16.100
2023-01-25T03:02:33.814Z,16.950
2023-01-25T03:03:24.496Z,18.400
2023-01-25T03:04:32.401Z,16.950
2023-01-25T03:05:32.956Z,17.450
2023-01-25T03:06:21.534Z,17.500
2023-01-25T03:07:21.679Z,17.600
2023-01-25T03:08:26.220Z,16.400
2023-01-25T03:09:37.825Z,16.700
2023-01-25T03:10:25.044Z,17.200
2023-01-25T03:11:21.905Z,16.500
2023-01-25T03:12:23.423Z,16.950
2023-01-25T03:13:30.066Z,16.250
2023-01-25T03:14:21.809Z,16.700
2023-01-25T03:15:30.305Z,16.700
2023-01-25T03:16:27.983Z,16.950
2023-01-25T03:17:32.540Z,17.750
2023-01-25T03:18:25.401Z,16.700
2023-01-25T03:19:44.083Z,17.200
2023-01-25T03:20:24.515Z,16.900
2023-01-25T03:21:25.843Z,17.150
2023-01-25T03:22:32.506Z,17.400
2023-01-25T03:23:24.942Z,17.150
2023-01-25T03:24:38.139Z,17.000
2023-01-25T03:25:34.059Z,16.000
2023-01-25T03:26:22.570Z,16.700
2023-01-25T03:27:24.541Z,17.750
2023-01-25T03:28:32.727Z,17.700
2023-01-25T03:29:23.051Z,18.100
2023-01-25T03:30:22.144Z,18.100
2023-01-25T03:31:43.053Z,18.500
2023-01-25T03:32:36.269Z,18.500
2023-01-25T03:33:30.321Z,19.000
2023-01-25T03:34:21.528Z,18.450
2023-01-25T03:35:34.269Z,18.000
2023-01-25T03:36:30.203Z,18.600
2023-01-25T03:37:20.566Z,18.000
2023-01-25T03:38:24.067Z,19.100
2023-01-25T03:39:33.959Z,19.050
2023-01-25T03:40:26.902Z,18.800
2023-01-25T03:41:25.866Z,18.000
2023-01-25T03:42:20.362Z,18.300
2023-01-25T03:43:31.641Z,19.200
2023-01-25T03:44:26.631Z,17.850
2023-01-25T03:45:22.326Z,17.650
2023-01-25T03:46:32.533Z,18.600
2023-01-25T03:47:38.442Z,18.300
2023-01-25T03:48:24.235Z,18.200
2023-01-25T03:49:36.312Z,17.950
2023-01-25T03:50:30.638Z,18.600
2023-01-25T03:51:22.127Z,18.700
2023-01-25T03:52:23.171Z,18.250
2023-01-25T03:53:49.821Z,18.750
2023-01-25T03:54:43.649Z,18.100
2023-01-25T03:55:27.679Z,18.100
2023-01-25T03:56:20.673Z,18.800
2023-01-25T03:57:28.473Z,18.800
2023-01-25T03:58:26.693Z,18.500
2023-01-25T03:59:21.518Z,18.750
2023-01-25T04:00:34.322Z,18.350
2023-01-25T04:01:44.034Z,18.600
2023-01-25T04:02:29.841Z,18.050
2023-01-25T04:03:31.258Z,18.100
2023-01-25T04:04:21.651Z,18.300
2023-01-25T04:05:27.900Z,18.600
2023-01-25T04:06:24.328Z,18.300
2023-01-25T04:07:23.472Z,18.150
2023-01-25T04:08:25.653Z,18.300
2023-01-25T04:09:33.666Z,18.650
2023-01-25T04:10:20.185Z,18.100
2023-01-25T04:11:28.122Z,17.900
2023-01-25T04:12:43.246Z,18.350
2023-01-25T04:13:22.679Z,18.700
2023-01-25T04:14:43.578Z,18.850
2023-01-25T04:15:20.927Z,17.350
2023-01-25T04:16:24.889Z,18.700
2023-01-25T04:17:23.914Z,17.900
2023-01-25T04:18:31.852Z,18.000
2023-01-25T04:19:22.286Z,17.800
2023-01-25T04:20:31.059Z,18.000
2023-01-25T04:21:32.459Z,18.300
2023-01-25T04:22:26.490Z,17.700
2023-01-25T04:23:24.582Z,17.850
2023-01-25T04:24:22.306Z,18.700
2023-01-25T04:25:26.167Z,18.750
2023-01-25T04:26:28.312Z,18.500
2023-01-25T04:27:19.387Z,18.600
2023-01-25T04:28:22.340Z,17.750
2023-01-25T04:29:40.643Z,18.800
2023-01-25T04:30:23.140Z,17.850
2023-01-25T04:31:21.511Z,18.300
2023-01-25T04:32:30.487Z,18.050
2023-01-25T04:33:27.103Z,17.600
2023-01-25T04:34:25.459Z,17.700
2023-01-25T04:35:23.381Z,18.050
2023-01-25T04:36:23.076Z,18.400
2023-01-25T04:37:28.306Z,19.150
2023-01-25T04:38:20.537Z,19.000
2023-01-25T04:39:32.148Z,18.650
2023-01-25T04:40:36.005Z,17.400
2023-01-25T04:41:28.999Z,17.500
2023-01-25T04:42:20.692Z,17.900
2023-01-25T04:43:28.269Z,17.650
2023-01-25T04:44:24.354Z,17.000
2023-01-25T04:45:24.700Z,17.650
2023-01-25T04:46:21.302Z,18.350
2023-01-25T04:47:21.660Z,17.300
2023-01-25T04:48:23.040Z,17.950
2023-01-25T04:49:24.851Z,17.750
2023-01-25T04:50:28.834Z,17.600
2023-01-25T04:51:36.169Z,17.450
2023-01-25T04:52:20.408Z,18.100
2023-01-25T04:53:21.672Z,18.500
2023-01-25T04:54:28.531Z,17.900
2023-01-25T04:55:22.318Z,17.850
2023-01-25T04:56:29.052Z,17.700
2023-01-25T04:57:21.350Z,17.950
2023-01-25T04:58:24.520Z,17.800
2023-01-25T04:59:20.337Z,18.000
2023-01-25T05:00:27.613Z,17.750
2023-01-25T05:01:27.229Z,17.200
2023-01-25T05:02:23.432Z,18.100
2023-01-25T05:03:32.529Z,18.300
2023-01-25T05:04:24.141Z,16.900
2023-01-25T05:05:24.670Z,17.800
2023-01-25T05:06:20.393Z,19.700
2023-01-25T05:07:29.500Z,17.950
2023-01-25T05:08:23.143Z,17.450
2023-01-25T05:09:43.724Z,17.200
2023-01-25T05:10:28.650Z,17.200
2023-01-25T05:11:26.117Z,18.300
2023-01-25T05:12:22.622Z,18.000
2023-01-25T05:13:42.406Z,19.200
2023-01-25T05:14:32.319Z,19.100
2023-01-25T05:15:20.250Z,16.700
2023-01-25T05:16:19.650Z,16.900
2023-01-25T05:17:33.152Z,15.900
2023-01-25T05:18:47.521Z,16.200
2023-01-25T05:19:26.777Z,18.000
2023-01-25T05:20:35.882Z,18.300
2023-01-25T05:21:24.183Z,18.900
2023-01-25T05:22:23.362Z,18.300
2023-01-25T05:23:24.222Z,17.200
2023-01-25T05:24:33.550Z,17.650
2023-01-25T05:25:32.212Z,18.250
2023-01-25T05:26:24.657Z,19.300
2023-01-25T05:27:23.312Z,18.600
2023-01-25T05:28:30.381Z,17.850
2023-01-25T05:29:35.444Z,18.000
2023-01-25T05:30:23.280Z,17.850
2023-01-25T05:31:22.119Z,18.600
2023-01-25T05:32:21.210Z,18.300
2023-01-25T05:33:21.791Z,18.300
2023-01-25T05:34:20.674Z,18.550
2023-01-25T05:35:21.582Z,18.800
2023-01-25T05:36:26.395Z,18.600
2023-01-25T05:37:32.587Z,19.000
2023-01-25T05:38:25.935Z,19.100
2023-01-25T05:39:40.108Z,19.500
2023-01-25T05:40:37.965Z,18.900
2023-01-25T05:41:20.503Z,19.050
2023-01-25T05:42:24.622Z,18.550
2023-01-25T05:43:26.258Z,18.200
2023-01-25T05:44:19.392Z,18.700
2023-01-25T05:45:30.617Z,18.100
2023-01-25T05:46:22.546Z,18.300
2023-01-25T05:47:24.437Z,18.900
2023-01-25T05:48:21.222Z,18.400
2023-01-25T05:49:24.414Z,17.900
2023-01-25T05:50:21.480Z,17.950
2023-01-25T05:51:36.597Z,16.500
2023-01-25T05:52:35.060Z,18.850
2023-01-25T05:53:27.131Z,18.100
2023-01-25T05:54:20.111Z,18.500
2023-01-25T05:55:20.532Z,19.400
2023-01-25T05:56:32.272Z,17.850
2023-01-25T05:57:26.762Z,17.000
2023-01-25T05:58:22.399Z,17.800
2023-01-25T05:59:32.900Z,18.100
2023-01-25T06:00:21.423Z,17.800
2023-01-25T06:01:24.316Z,18.050
2023-01-25T06:02:34.718Z,18.900
2023-01-25T06:03:38.195Z,18.950
2023-01-25T06:04:29.374Z,18.500
2023-01-25T06:05:22.408Z,18.700
2023-01-25T06:06:25.328Z,18.800
2023-01-25T06:07:28.765Z,18.800
2023-01-25T06:08:29.666Z,18.700
2023-01-25T06:09:23.419Z,18.400
2023-01-25T06:10:33.121Z,18.750
2023-01-25T06:11:33.499Z,18.700
2023-01-25T06:12:24.447Z,18.850
2023-01-25T06:13:34.346Z,18.400
2023-01-25T06:14:39.660Z,19.800
2023-01-25T06:15:24.711Z,19.750
2023-01-25T06:16:28.027Z,17.600
2023-01-25T06:17:22.281Z,17.300
2023-01-25T06:18:29.413Z,17.100
2023-01-25T06:19:30.655Z,17.300
2023-01-25T06:20:24.728Z,18.000
2023-01-25T06:21:45.611Z,18.850
2023-01-25T06:22:38.831Z,17.900
2023-01-25T06:23:20.728Z,18.550
2023-01-25T06:24:25.112Z,18.500
2023-01-25T06:25:27.410Z,18.250
2023-01-25T06:26:24.121Z,18.200
2023-01-25T06:27:29.173Z,18.650
2023-01-25T06:28:20.648Z,18.600
2023-01-25T06:29:25.939Z,18.800
2023-01-25T06:30:20.697Z,18.100
2023-01-25T06:31:20.908Z,18.150
2023-01-25T06:32:21.257Z,17.100
2023-01-25T06:33:22.722Z,17.100
2023-01-25T06:34:25.555Z,17.550
2023-01-25T06:35:24.289Z,17.400
2023-01-25T06:36:24.545Z,17.500
2023-01-25T06:37:21.194Z,17.750
2023-01-25T06:38:23.069Z,18.200
2023-01-25T06:39:26.512Z,18.550
2023-01-25T06:40:22.558Z,19.500
2023-01-25T06:41:37.064Z,18.250
2023-01-25T06:42:28.393Z,18.700
2023-01-25T06:43:21.378Z,18.050
2023-01-25T06:44:20.736Z,17.600
2023-01-25T06:45:20.978Z,17.700
2023-01-25T06:46:29.121Z,16.850
2023-01-25T06:47:24.938Z,16.500
2023-01-25T06:48:33.486Z,16.900
2023-01-25T06:49:20.645Z,16.800
2023-01-25T06:50:25.553Z,16.950
2023-01-25T06:51:22.061Z,18.300
2023-01-25T06:52:28.786Z,17.150
2023-01-25T06:53:26.856Z,16.800
2023-01-25T06:54:22.445Z,16.900
2023-01-25T06:55:33.510Z,17.100
2023-01-25T06:56:23.589Z,17.350
2023-01-25T06:57:26.231Z,18.000
2023-01-25T06:58:22.598Z,17.450
2023-01-25T06:59:31.857Z,18.100
2023-01-25T07:00:26.874Z,16.600
2023-01-25T07:01:30.578Z,16.500
2023-01-25T07:02:23.305Z,16.450
2023-01-25T07:03:27.427Z,16.400
2023-01-25T07:04:24.836Z,16.500
2023-01-25T07:05:21.846Z,17.500
2023-01-25T07:06:31.775Z,17.350
2023-01-25T07:07:21.646Z,17.900
2023-01-25T07:08:28.099Z,16.750
2023-01-25T07:09:28.695Z,17.300
2023-01-25T07:10:21.479Z,17.400
2023-01-25T07:11:24.888Z,16.900
2023-01-25T07:12:20.926Z,16.900
2023-01-25T07:13:20.275Z,16.700
2023-01-25T07:14:28.763Z,17.350
2023-01-25T07:15:23.546Z,16.800
2023-01-25T07:16:32.528Z,17.850
2023-01-25T07:17:25.112Z,17.550
2023-01-25T07:18:19.430Z,16.900
2023-01-25T07:19:26.675Z,17.550
2023-01-25T07:20:27.396Z,17.500
2023-01-25T07:21:20.632Z,18.300
2023-01-25T07:22:24.364Z,18.050
2023-01-25T07:23:33.179Z,17.850
2023-01-25T07:24:29.915Z,17.600
2023-01-25T07:25:24.734Z,16.000
2023-01-25T07:26:21.428Z,15.900
2023-01-25T07:27:31.924Z,16.400
2023-01-25T07:28:26.602Z,16.150
2023-01-25T07:29:22.734Z,18.300
2023-01-25T07:30:24.063Z,18.200
2023-01-25T07:31:29.836Z,16.600
2023-01-25T07:32:26.311Z,17.400
2023-01-25T07:33:22.430Z,17.300
2023-01-25T07:34:31.263Z,17.700
2023-01-25T07:35:28.791Z,17.700
2023-01-25T07:36:23.083Z,16.700
2023-01-25T07:37:41.669Z,16.300
2023-01-25T07:38:39.793Z,16.950
2023-01-25T07:39:24.604Z,17.900
2023-01-25T07:40:23.914Z,17.450
2023-01-25T07:41:31.594Z,17.800
2023-01-25T07:42:27.595Z,17.450
2023-01-25T07:43:25.222Z,18.200
2023-01-25T07:44:48.533Z,18.200
2023-01-25T07:45:47.031Z,17.200
2023-01-25T07:46:33.297Z,17.000
2023-01-25T07:47:20.776Z,17.500
2023-01-25T07:48:22.210Z,19.150
2023-01-25T07:49:28.090Z,18.250
2023-01-25T07:50:29.415Z,17.200
2023-01-25T07:51:23.241Z,18.500
2023-01-25T07:52:43.733Z,17.100
2023-01-25T07:53:25.747Z,16.900
2023-01-25T07:54:22.243Z,16.400
2023-01-25T07:55:25.159Z,17.550
2023-01-25T07:56:42.738Z,17.700
2023-01-25T07:57:22.870Z,17.700
2023-01-25T07:58:22.082Z,17.500
2023-01-25T07:59:34.098Z,18.400
2023-01-25T08:00:26.096Z,18.800
2023-01-25T08:01:20.531Z,18.550
2023-01-25T08:02:31.692Z,18.500
2023-01-25T08:03:23.888Z,18.700
2023-01-25T08:04:26.463Z,19.100
2023-01-25T08:05:19.652Z,18.800
2023-01-25T08:06:23.603Z,19.150
2023-01-25T08:07:42.579Z,18.000
2023-01-25T08:08:22.689Z,18.600
2023-01-25T08:09:30.758Z,17.750
2023-01-25T08:10:27.359Z,18.800
2023-01-25T08:11:21.727Z,17.400
2023-01-25T08:12:23.629Z,17.800
2023-01-25T08:13:29.636Z,17.500
2023-01-25T08:14:21.403Z,17.400
2023-01-25T08:15:23.030Z,17.700
2023-01-25T08:16:30.870Z,18.000
2023-01-25T08:17:26.780Z,19.700
2023-01-25T08:18:24.773Z,17.200
2023-01-25T08:19:27.512Z,17.550
2023-01-25T08:20:31.373Z,17.400
2023-01-25T08:21:25.325Z,18.050
2023-01-25T08:22:22.568Z,18.100
2023-01-25T08:23:22.348Z,18.100
2023-01-25T08:24:37.773Z,17.700
2023-01-25T08:25:22.807Z,18.200
2023-01-25T08:26:23.429Z,18.550
2023-01-25T08:27:35.448Z,18.700
2023-01-25T08:28:29.043Z,18.850
2023-01-25T08:29:23.318Z,19.300
2023-01-25T08:30:23.840Z,19.050
2023-01-25T08:31:28.793Z,18.800
2023-01-25T08:32:25.419Z,19.300
2023-01-25T08:33:25.805Z,18.450
2023-01-25T08:34:28.691Z,20.300
2023-01-25T08:35:26.022Z,18.650
2023-01-25T08:36:25.486Z,18.200
2023-01-25T08:37:26.810Z,18.700
2023-01-25T08:38:30.791Z,18.300
2023-01-25T08:39:22.709Z,17.350
2023-01-25T08:40:30.583Z,17.600
2023-01-25T08:41:24.591Z,16.900
2023-01-25T08:42:24.643Z,17.550
2023-01-25T08:43:22.480Z,17.400
2023-01-25T08:44:22.644Z,17.050
2023-01-25T08:45:28.233Z,18.350
2023-01-25T08:46:22.782Z,17.550
2023-01-25T08:47:34.791Z,18.700
2023-01-25T08:48:31.002Z,18.300
2023-01-25T08:49:20.078Z,17.400
2023-01-25T08:50:20.787Z,18.500
2023-01-25T08:51:26.841Z,17.900
2023-01-25T08:52:21.847Z,17.350
2023-01-25T08:53:22.623Z,17.200
2023-01-25T08:54:34.475Z,17.050
2023-01-25T08:55:27.866Z,16.800
2023-01-25T08:56:26.294Z,17.600
2023-01-25T08:57:20.815Z,17.400
2023-01-25T08:58:30.939Z,17.700
2023-01-25T08:59:25.069Z,17.450
2023-01-25T09:00:24.182Z,17.000
2023-01-25T09:01:34.900Z,17.100
2023-01-25T09:02:31.719Z,17.500
2023-01-25T09:03:25.077Z,17.900
2023-01-25T09:04:22.826Z,17.150
2023-01-25T09:05:32.761Z,17.200
2023-01-25T09:06:29.009Z,18.200
2023-01-25T09:07:24.032Z,17.700
2023-01-25T09:08:32.805Z,16.700
2023-01-25T09:09:35.937Z,17.400
2023-01-25T09:10:20.930Z,18.400
2023-01-25T09:11:27.023Z,17.450
2023-01-25T09:12:30.791Z,17.200
2023-01-25T09:13:32.418Z,15.700
2023-01-25T09:14:25.769Z,16.800
2023-01-25T09:15:34.807Z,17.450
2023-01-25T09:16:29.424Z,18.400
2023-01-25T09:17:25.955Z,18.500
2023-01-25T09:18:30.477Z,18.300
2023-01-25T09:19:32.318Z,18.150
2023-01-25T09:20:26.789Z,17.500
2023-01-25T09:21:28.335Z,17.400
2023-01-25T09:22:23.171Z,19.100
2023-01-25T09:23:33.293Z,18.400
2023-01-25T09:24:27.046Z,18.000
2023-01-25T09:25:22.820Z,18.300
2023-01-25T09:26:31.557Z,17.700
2023-01-25T09:27:20.508Z,17.800
2023-01-25T09:28:21.870Z,17.900
2023-01-25T09:29:26.548Z,17.600
2023-01-25T09:30:48.420Z,17.700
2023-01-25T09:31:32.138Z,17.100
2023-01-25T09:32:21.072Z,17.050
2023-01-25T09:33:31.726Z,17.200
2023-01-25T09:34:29.187Z,17.300
2023-01-25T09:35:25.597Z,17.600
2023-01-25T09:36:30.125Z,17.800
2023-01-25T09:37:22.340Z,17.300
2023-01-25T09:38:24.857Z,17.500
2023-01-25T09:39:22.724Z,17.750
2023-01-25T09:40:34.621Z,16.750
2023-01-25T09:41:30.650Z,16.800
2023-01-25T09:42:22.906Z,16.900
2023-01-25T09:43:33.590Z,16.650
2023-01-25T09:44:30.232Z,16.650
2023-01-25T09:45:37.240Z,17.150
2023-01-25T09:46:23.035Z,17.800
2023-01-25T09:47:42.462Z,17.450
2023-01-25T09:48:34.897Z,17.300
2023-01-25T09:49:23.209Z,16.300
2023-01-25T09:50:33.483Z,16.400
2023-01-25T09:51:30.956Z,16.150
2023-01-25T09:52:23.642Z,16.700
2023-01-25T09:53:25.953Z,16.400
2023-01-25T09:54:47.233Z,15.800
2023-01-25T09:55:38.372Z,15.600
2023-01-25T09:56:21.597Z,15.400
2023-01-25T09:57:25.139Z,15.900
2023-01-25T09:58:36.019Z,16.250
2023-01-25T09:59:27.204Z,15.800
2023-01-25T10:00:22.058Z,16.050
2023-01-25T10:01:49.799Z,16.150
2023-01-25T10:02:44.441Z,15.700
2023-01-25T10:03:38.599Z,15.900
2023-01-25T10:04:23.897Z,15.300
2023-01-25T10:05:21.100Z,16.200
2023-01-25T10:06:31.356Z,16.500
2023-01-25T10:07:23.293Z,17.950
2023-01-25T10:08:33.531Z,17.100
2023-01-25T10:09:27.071Z,17.600
2023-01-25T10:10:25.001Z,17.100
2023-01-25T10:11:26.522Z,17.200
2023-01-25T10:12:25.578Z,16.800
2023-01-25T10:13:24.044Z,16.400
2023-01-25T10:14:29.631Z,16.450
2023-01-25T10:15:21.939Z,17.850
2023-01-25T10:16:31.245Z,16.100
2023-01-25T10:17:23.065Z,17.100
2023-01-25T10:18:29.654Z,16.400
2023-01-25T10:19:28.868Z,16.150
2023-01-25T10:20:25.008Z,15.950
2023-01-25T10:21:32.690Z,15.400
2023-01-25T10:22:25.631Z,15.900
2023-01-25T10:23:26.843Z,15.900
2023-01-25T10:24:20.917Z,16.000
2023-01-25T10:25:36.571Z,16.200
2023-01-25T10:26:20.958Z,17.300
2023-01-25T10:27:28.164Z,15.350
2023-01-25T10:28:21.829Z,16.250
2023-01-25T10:29:27.560Z,16.300
2023-01-25T10:30:22.200Z,15.600
2023-01-25T10:31:40.992Z,15.900
2023-01-25T10:32:39.736Z,15.500
2023-01-25T10:33:23.704Z,16.850
2023-01-25T10:34:32.053Z,16.400
2023-01-25T10:35:34.802Z,16.000
2023-01-25T10:36:34.076Z,14.750
2023-01-25T10:37:26.207Z,17.100
2023-01-25T10:38:24.109Z,16.000
2023-01-25T10:39:34.595Z,15.900
2023-01-25T10:40:26.494Z,16.000
2023-01-25T10:41:24.989Z,15.700
2023-01-25T10:42:20.804Z,15.450
2023-01-25T10:43:20.623Z,16.400
2023-01-25T10:44:21.016Z,16.300
2023-01-25T10:45:23.332Z,16.800
2023-01-25T10:46:35.562Z,17.900
2023-01-25T10:47:28.644Z,16.400
2023-01-25T10:48:24.780Z,16.600
2023-01-25T10:49:33.769Z,16.550
2023-01-25T10:50:25.310Z,16.500
2023-01-25T10:51:23.481Z,17.400
2023-01-25T10:52:19.673Z,16.350
2023-01-25T10:53:21.153Z,15.800
2023-01-25T10:54:31.843Z,16.700
2023-01-25T10:55:26.342Z,15.300
2023-01-25T10:56:38.246Z,15.150
2023-01-25T10:57:31.125Z,16.700
2023-01-25T10:58:29.621Z,17.250
2023-01-25T10:59:23.272Z,17.200
2023-01-25T11:00:24.605Z,18.050
2023-01-25T11:01:34.900Z,16.700
2023-01-25T11:02:22.055Z,17.800
2023-01-25T11:03:41.770Z,16.400
2023-01-25T11:04:35.666Z,18.500
2023-01-25T11:05:26.643Z,18.800
2023-01-25T11:06:19.552Z,16.450
2023-01-25T11:07:29.466Z,17.450
2023-01-25T11:08:21.111Z,18.350
2023-01-25T11:09:25.228Z,15.600
2023-01-25T11:10:36.223Z,16.750
2023-01-25T11:11:32.149Z,18.300
2023-01-25T11:12:33.434Z,17.200
2023-01-25T11:13:20.508Z,17.700
2023-01-25T11:14:33.083Z,17.500
2023-01-25T11:15:28.867Z,19.050
2023-01-25T11:16:28.910Z,18.000
2023-01-25T11:17:56.043Z,15.900
2023-01-25T11:18:33.835Z,17.050
2023-01-25T11:19:37.694Z,17.600
2023-01-25T11:20:23.802Z,17.250
2023-01-25T11:21:22.424Z,18.500
2023-01-25T11:22:31.326Z,18.000
2023-01-25T11:23:22.391Z,17.400
2023-01-25T11:24:37.940Z,17.000
2023-01-25T11:25:48.084Z,16.800
2023-01-25T11:26:25.150Z,17.500
2023-01-25T11:27:27.015Z,17.350
2023-01-25T11:28:25.411Z,17.300
2023-01-25T11:29:28.926Z,17.900
2023-01-25T11:30:24.932Z,17.700
2023-01-25T11:31:21.282Z,16.950
2023-01-25T11:32:30.620Z,17.400
2023-01-25T11:33:27.486Z,17.650
2023-01-25T11:34:24.412Z,17.100
2023-01-25T11:35:31.363Z,17.850
2023-01-25T11:36:23.526Z,18.250
2023-01-25T11:37:21.195Z,17.800
2023-01-25T11:38:23.188Z,17.800
2023-01-25T11:39:48.186Z,18.100
2023-01-25T11:40:42.012Z,17.050
2023-01-25T11:41:24.882Z,17.000
2023-01-25T11:42:33.732Z,17.100
2023-01-25T11:43:26.722Z,16.900
2023-01-25T11:44:21.807Z,17.700
2023-01-25T11:45:28.636Z,18.250
2023-01-25T11:46:20.994Z,18.500
2023-01-25T11:47:42.508Z,18.900
2023-01-25T11:48:34.797Z,17.800
2023-01-25T11:49:21.843Z,19.900
2023-01-25T11:50:31.463Z,17.700
2023-01-25T11:51:27.227Z,17.750
2023-01-25T11:52:21.034Z,18.800
2023-01-25T11:53:24.870Z,18.750
2023-01-25T11:54:22.509Z,19.700
2023-01-25T11:55:23.980Z,18.750
2023-01-25T11:56:24.776Z,19.100
2023-01-25T11:57:29.120Z,18.300
2023-01-25T11:58:29.616Z,18.600
2023-01-25T11:59:21.531Z,18.500
2023-01-25T12:00:21.593Z,18.750
2023-01-25T12:01:21.457Z,18.700
2023-01-25T12:02:40.628Z,17.600
2023-01-25T12:03:29.278Z,17.650
2023-01-25T12:04:41.180Z,18.000
2023-01-25T12:05:21.806Z,18.700
2023-01-25T12:06:23.375Z,19.100
2023-01-25T12:07:23.272Z,19.000
2023-01-25T12:08:25.550Z,18.800
2023-01-25T12:09:38.780Z,17.100
2023-01-25T12:10:31.556Z,18.200
2023-01-25T12:11:27.759Z,18.800
2023-01-25T12:12:40.228Z,18.950
2023-01-25T12:13:31.558Z,19.100
2023-01-25T12:14:27.426Z,19.400
2023-01-25T12:15:29.962Z,17.750
2023-01-25T12:16:23.425Z,17.600
2023-01-25T12:17:29.716Z,18.100
2023-01-25T12:18:20.753Z,18.500
2023-01-25T12:19:43.619Z,19.200
2023-01-25T12:20:36.852Z,18.200
2023-01-25T12:21:31.926Z,19.000
2023-01-25T12:22:21.788Z,17.550
2023-01-25T12:23:23.447Z,17.850
2023-01-25T12:24:32.856Z,18.400
2023-01-25T12:25:23.825Z,18.850
2023-01-25T12:26:26.488Z,18.400
2023-01-25T12:27:40.576Z,18.400
2023-01-25T12:28:26.803Z,17.300
2023-01-25T12:29:27.020Z,18.650
2023-01-25T12:30:30.367Z,18.800
2023-01-25T12:31:24.159Z,18.800
2023-01-25T12:32:28.837Z,19.000
2023-01-25T12:33:49.733Z,19.000
2023-01-25T12:34:33.442Z,18.800
2023-01-25T12:35:36.788Z,18.800
2023-01-25T12:36:23.410Z,19.100
2023-01-25T12:37:23.187Z,18.550
2023-01-25T12:38:28.193Z,17.950
2023-01-25T12:39:21.992Z,18.300
2023-01-25T12:40:38.368Z,18.450